首页
METAR-TAF:

METAR-TAF

机场 :

海口美兰国际机场

海口, 中华人民共和国

纬度: 19-56-05N, 经度: 110-27-32E, 海拔: 23米

当前天气观测

该预报发布于1小时和0分钟前的07:00 UTC
风速8节,风向东转东北
温度 30°C
湿度 84%
气压 1009 hPa
能见度10公里或以上
少量云层高于2600英尺, 积雨云.
多云层高于4000英尺
雷暴, 小雨

METAR: ZJHK 220700Z 07004MPS 9999 -TSRA FEW026CB BKN040 30/27 Q1009 BECMG TL0720 NSW

时间: 16:00 (08:00 UTC)

预报

该预报发布于4小时和57分钟前的03:03 UTC
预报有效从22日的 06点(UTC)到 23日的 06点(UTC)
风速8节,风向
能见度10公里或以上
散云层高于2000英尺
短暂存在
从 22日的 06点(UTC)到 22日的 12点(UTC)
散云层高于2000英尺
少量云层高于2600英尺, 积雨云.
雷暴

TAF: ZJHK 220303Z 2206/2306 18004MPS 9999 SCT020 TX34/2206Z TN25/2221Z TEMPO 2206/2212 TS SCT020 FEW026CB

超过4000个机场的气象观测和天气预报(METAR&TAF报告)。

可查询的气象台以黄色和红色小点在地图上表示。

将鼠标移到小点上方,可查看气象台名称。

然后点击查看天气观测和预报。

如需切换地图:点击带黑十字的绿色按钮放大地图;点击带横线的绿色按钮缩小地图;或者点击绿色箭头查看邻近地区的地图。


METAR-TAF: